METAR Data
IDs: Format: Raw Decoded Include TAF

Data at: 0113 UTC 15 Aug 2020

PAGK 150053Z AUTO 01019G29KT 10SM CLR 19/05 A2979 RMK AO2 PK WND 01035/0024 SLP086 T01940050 TSNO